Terminal Aerodrome Forecast
Issued by NWS

Home | Current Version | Previous Version | Text Only | Print | Product List | Glossary On
Versions: 1 2 3 4 5 6 7 8 9 10 11 12 13 14 15 16 17 18 19 20 21 22 23 24 25 26 27
000
FTUS45 KBOI 261149
TAFTWF
TAF
KTWF 261149Z 2612/2712 22014KT P6SM VCSH OVC050
     FM261700 25015KT P6SM -SHRA OVC030
      TEMPO 2619/2622 5SM SHRA BR SCT015 OVC030
     FM270500 24020KT P6SM SCT060=

USA.gov is the U.S. government's official web portal to all federal, state and local government web resources and services.